< < Back
Terminal Aerodrome Forecast


Current Version              Previous Versions:   1  2  3  4  5  6  7  8  9  

Terminal Aerodrome Forecast

778
FTUS42 KTAE 040522
TAFVLD
TAF
KVLD 040522Z 0406/0506 00000KT P6SM SCT035 BKN070 OVC090
      TEMPO 0409/0413 BKN025
     FM041500 32010G15KT P6SM SCT040
     FM050000 32002KT P6SM SKC=

Latest METAR

386
SAUS70 KWBC 052200 RRM
MTRVLD
METAR KVLD 052153Z VRB06KT 10SM CLR 22/03 A2975 RMK AO2 SLP082
T02220028


USA.gov is the U.S. government's official web portal to all federal, state and local government web resources and services.